createdAt,value
2024-03-16T00:02:00.666Z,2.93
2024-03-16T00:04:27.451Z,3.23
2024-03-16T00:06:54.083Z,3.40
2024-03-16T00:09:21.447Z,3.20
2024-03-16T00:11:48.296Z,2.97
2024-03-16T00:14:14.981Z,3.40
2024-03-16T00:16:41.601Z,3.33
2024-03-16T00:19:09.118Z,3.30
2024-03-16T00:21:35.892Z,3.20
2024-03-16T00:24:02.552Z,3.57
2024-03-16T00:26:29.208Z,2.70
2024-03-16T00:28:55.774Z,3.27
2024-03-16T00:31:22.405Z,3.00
2024-03-16T00:33:49.070Z,3.30
2024-03-16T00:36:17.250Z,3.00
2024-03-16T00:38:45.245Z,3.00
2024-03-16T00:41:11.870Z,2.83
2024-03-16T00:43:38.447Z,3.20
2024-03-16T00:46:05.105Z,3.47
2024-03-16T00:48:31.853Z,3.20
2024-03-16T00:50:59.289Z,3.03
2024-03-16T00:53:25.907Z,2.73
2024-03-16T00:55:52.851Z,3.20
2024-03-16T00:58:19.493Z,2.97
2024-03-16T01:00:46.072Z,2.50
2024-03-16T01:03:12.697Z,2.83
2024-03-16T01:05:39.291Z,2.73
2024-03-16T01:08:06.033Z,3.07
2024-03-16T01:10:32.682Z,2.90
2024-03-16T01:12:59.328Z,3.23
2024-03-16T01:15:26.114Z,3.20
2024-03-16T01:17:52.763Z,3.00
2024-03-16T01:20:19.350Z,3.33
2024-03-16T01:22:45.964Z,3.30
2024-03-16T01:25:14.302Z,3.30
2024-03-16T01:27:41.029Z,2.97
2024-03-16T01:30:07.882Z,2.80
2024-03-16T01:32:34.448Z,2.87
2024-03-16T01:35:01.090Z,2.87
2024-03-16T01:37:27.985Z,2.97
2024-03-16T01:39:56.836Z,2.93
2024-03-16T01:42:23.552Z,3.10
2024-03-16T01:45:08.041Z,2.80
2024-03-16T01:47:34.818Z,2.80
2024-03-16T01:50:01.519Z,2.50
2024-03-16T01:52:28.246Z,2.60
2024-03-16T01:54:54.910Z,2.70
2024-03-16T01:57:21.673Z,2.70
2024-03-16T01:59:50.259Z,2.50
2024-03-16T02:02:32.276Z,2.67
2024-03-16T02:04:58.924Z,3.20
2024-03-16T02:07:25.506Z,3.33
2024-03-16T02:09:53.174Z,2.80
2024-03-16T02:12:20.068Z,3.47
2024-03-16T02:14:46.695Z,3.17
2024-03-16T02:17:13.424Z,3.17
2024-03-16T02:19:40.030Z,3.63
2024-03-16T02:22:07.108Z,3.60
2024-03-16T02:24:36.656Z,3.70
2024-03-16T02:27:03.448Z,3.17
2024-03-16T02:29:30.059Z,3.30
2024-03-16T02:31:56.678Z,3.13
2024-03-16T02:34:23.299Z,3.33
2024-03-16T02:36:49.948Z,2.97
2024-03-16T02:39:18.106Z,2.87
2024-03-16T02:41:44.733Z,2.83
2024-03-16T02:44:11.369Z,3.00
2024-03-16T02:46:37.985Z,2.90
2024-03-16T02:49:04.697Z,3.10
2024-03-16T02:51:31.431Z,3.13
2024-03-16T02:53:58.037Z,3.23
2024-03-16T02:56:24.616Z,2.90
2024-03-16T02:58:51.366Z,3.13
2024-03-16T03:01:18.210Z,3.27
2024-03-16T03:03:44.897Z,3.40
2024-03-16T03:06:11.488Z,3.30
2024-03-16T03:08:38.113Z,3.37
2024-03-16T03:11:05.263Z,3.50
2024-03-16T03:13:32.003Z,3.03
2024-03-16T03:15:58.660Z,3.40
2024-03-16T03:18:28.434Z,3.40
2024-03-16T03:20:58.889Z,3.30
2024-03-16T03:23:25.567Z,3.30
2024-03-16T03:25:52.165Z,3.33
2024-03-16T03:28:18.745Z,3.20
2024-03-16T03:30:45.485Z,3.70
2024-03-16T03:33:12.320Z,3.00
2024-03-16T03:35:39.083Z,3.90
2024-03-16T03:38:05.784Z,3.37
2024-03-16T03:40:32.437Z,3.37
2024-03-16T03:43:01.606Z,3.30
2024-03-16T03:45:51.358Z,3.03
2024-03-16T03:48:23.824Z,3.27
2024-03-16T03:50:54.083Z,3.30
2024-03-16T03:53:22.081Z,3.10
2024-03-16T03:55:48.872Z,3.30
2024-03-16T03:58:15.546Z,3.40
2024-03-16T04:00:46.527Z,3.13
2024-03-16T04:03:13.260Z,3.23
2024-03-16T04:05:40.282Z,3.40
2024-03-16T04:08:07.382Z,2.90
2024-03-16T04:10:34.558Z,3.40
2024-03-16T04:13:01.266Z,2.90
2024-03-16T04:15:28.131Z,2.97
2024-03-16T04:17:55.016Z,3.30
2024-03-16T04:20:23.037Z,3.40
2024-03-16T04:22:49.849Z,3.33
2024-03-16T04:25:17.482Z,3.30
2024-03-16T04:27:47.935Z,3.30
2024-03-16T04:30:14.855Z,3.43
2024-03-16T04:32:41.668Z,3.13
2024-03-16T04:35:09.652Z,3.53
2024-03-16T04:37:36.563Z,3.27
2024-03-16T04:40:06.617Z,3.13
2024-03-16T04:42:33.696Z,3.73
2024-03-16T04:45:00.643Z,3.47
2024-03-16T04:47:27.424Z,3.47
2024-03-16T04:49:54.181Z,3.43
2024-03-16T04:52:20.810Z,3.47
2024-03-16T04:54:47.604Z,3.53
2024-03-16T04:57:14.232Z,3.87
2024-03-16T04:59:41.377Z,3.90
2024-03-16T05:02:08.310Z,3.70
2024-03-16T05:04:35.175Z,3.77
2024-03-16T05:07:01.943Z,3.40
2024-03-16T05:09:29.649Z,3.20
2024-03-16T05:11:56.625Z,4.00
2024-03-16T05:14:23.350Z,3.67
2024-03-16T05:16:49.984Z,3.80
2024-03-16T05:19:16.716Z,3.13
2024-03-16T05:21:43.861Z,3.33
2024-03-16T05:24:10.865Z,3.40
2024-03-16T05:26:37.954Z,3.40
2024-03-16T05:29:04.600Z,3.57
2024-03-16T05:31:33.228Z,3.33
2024-03-16T05:34:00.418Z,3.40
2024-03-16T05:36:27.329Z,3.23
2024-03-16T05:38:55.213Z,3.20
2024-03-16T05:41:22.099Z,3.53
2024-03-16T05:43:48.871Z,3.40
2024-03-16T05:46:15.560Z,3.37
2024-03-16T05:48:42.366Z,3.10
2024-03-16T05:51:08.972Z,3.07
2024-03-16T05:53:35.598Z,3.10
2024-03-16T05:56:02.285Z,3.50
2024-03-16T05:58:29.903Z,3.10
2024-03-16T06:00:57.888Z,3.07
2024-03-16T06:03:27.464Z,3.30
2024-03-16T06:05:54.880Z,3.10
2024-03-16T06:08:21.526Z,4.00
2024-03-16T06:10:49.185Z,3.30
2024-03-16T06:13:16.446Z,3.53
2024-03-16T06:15:43.258Z,3.00
2024-03-16T06:18:10.428Z,2.80
2024-03-16T06:20:37.192Z,3.20
2024-03-16T06:23:04.645Z,3.00
2024-03-16T06:25:37.067Z,3.10
2024-03-16T06:28:08.123Z,3.00
2024-03-16T06:30:35.301Z,2.90
2024-03-16T06:33:11.608Z,2.93
2024-03-16T06:35:38.834Z,2.77
2024-03-16T06:38:05.604Z,2.90
2024-03-16T06:40:32.226Z,3.23
2024-03-16T06:42:58.987Z,2.73
2024-03-16T06:45:25.659Z,3.23
2024-03-16T06:47:52.341Z,2.90
2024-03-16T06:50:19.018Z,2.67
2024-03-16T06:52:46.548Z,2.90
2024-03-16T06:55:14.585Z,2.50
2024-03-16T06:57:41.397Z,2.47
2024-03-16T07:00:10.312Z,2.40
2024-03-16T07:02:36.906Z,2.23
2024-03-16T07:05:03.705Z,2.20
2024-03-16T07:07:31.387Z,2.20
2024-03-16T07:09:59.275Z,2.30
2024-03-16T07:12:25.933Z,2.40
2024-03-16T07:14:52.763Z,2.37
2024-03-16T07:17:19.941Z,2.20
2024-03-16T07:19:46.620Z,2.13
2024-03-16T07:22:14.274Z,2.03
2024-03-16T07:24:40.993Z,2.40
2024-03-16T07:27:08.551Z,2.20
2024-03-16T07:29:35.249Z,2.23
2024-03-16T07:32:01.921Z,2.30
2024-03-16T07:34:28.537Z,1.90
2024-03-16T07:36:55.240Z,2.30
2024-03-16T07:39:22.378Z,2.20
2024-03-16T07:41:50.630Z,1.90
2024-03-16T07:44:18.421Z,1.90
2024-03-16T07:46:48.014Z,2.10
2024-03-16T07:49:15.066Z,1.50
2024-03-16T07:51:44.387Z,1.90
2024-03-16T07:54:13.604Z,1.80
2024-03-16T07:56:41.085Z,1.73
2024-03-16T07:59:10.591Z,1.90
2024-03-16T08:01:37.883Z,1.60
2024-03-16T08:04:07.780Z,1.83
2024-03-16T08:06:34.470Z,1.60
2024-03-16T08:09:01.058Z,2.00
2024-03-16T08:11:29.217Z,1.37
2024-03-16T08:13:55.841Z,1.80
2024-03-16T08:16:22.488Z,1.90
2024-03-16T08:18:49.303Z,1.50
2024-03-16T08:21:17.401Z,1.70
2024-03-16T08:23:45.134Z,1.60
2024-03-16T08:26:13.758Z,1.50
2024-03-16T08:28:40.412Z,1.50
2024-03-16T08:31:07.110Z,1.40
2024-03-16T08:33:33.855Z,1.57
2024-03-16T08:36:00.626Z,1.47
2024-03-16T08:38:27.570Z,1.40
2024-03-16T08:40:56.832Z,1.40
2024-03-16T08:43:23.716Z,1.60
2024-03-16T08:45:50.471Z,4.20
2024-03-16T08:48:17.205Z,2.20
2024-03-16T08:50:43.831Z,1.90
2024-03-16T08:53:10.435Z,2.07
2024-03-16T08:55:37.211Z,3.63
2024-03-16T08:58:04.919Z,5.97
2024-03-16T09:00:31.686Z,8.37
2024-03-16T09:02:58.557Z,4.60
2024-03-16T09:05:26.928Z,4.10
2024-03-16T09:07:53.596Z,6.80
2024-03-16T09:10:21.542Z,6.10
2024-03-16T09:12:48.543Z,5.83
2024-03-16T09:15:16.574Z,5.80
2024-03-16T09:17:43.412Z,4.07
2024-03-16T09:20:11.894Z,7.90
2024-03-16T09:22:39.033Z,5.60
2024-03-16T09:25:07.493Z,5.43
2024-03-16T09:27:35.102Z,4.90
2024-03-16T09:30:02.505Z,4.63
2024-03-16T09:32:29.329Z,4.70
2024-03-16T09:34:55.986Z,4.93
2024-03-16T09:37:22.729Z,9.30
2024-03-16T09:39:49.683Z,4.80
2024-03-16T09:42:16.350Z,6.67
